sensor_id;sensor_type;location;lat;lon;timestamp;pressure;altitude;pressure_sealevel;temperature;humidity
32324;BME280;25666;44.350;9.222;2022-07-04T00:00:06;101578.84;;;23.71;100.00
32324;BME280;25666;44.350;9.222;2022-07-04T00:02:32;101575.19;;;23.70;100.00
32324;BME280;25666;44.350;9.222;2022-07-04T00:04:57;101577.25;;;23.63;100.00
32324;BME280;25666;44.350;9.222;2022-07-04T00:07:23;101581.16;;;23.83;100.00
32324;BME280;25666;44.350;9.222;2022-07-04T00:09:49;101572.34;;;24.08;100.00
32324;BME280;25666;44.350;9.222;2022-07-04T00:12:14;101570.69;;;24.10;100.00
32324;BME280;25666;44.350;9.222;2022-07-04T00:14:40;101565.81;;;24.14;100.00
32324;BME280;25666;44.350;9.222;2022-07-04T00:17:05;101556.44;;;24.17;100.00
32324;BME280;25666;44.350;9.222;2022-07-04T00:19:31;101549.03;;;23.86;100.00
32324;BME280;25666;44.350;9.222;2022-07-04T00:21:57;101551.19;;;23.71;100.00
32324;BME280;25666;44.350;9.222;2022-07-04T00:24:22;101542.34;;;23.62;100.00
32324;BME280;25666;44.350;9.222;2022-07-04T00:26:48;101561.63;;;23.40;100.00
32324;BME280;25666;44.350;9.222;2022-07-04T00:29:14;101553.53;;;23.35;100.00
32324;BME280;25666;44.350;9.222;2022-07-04T00:31:40;101552.72;;;23.35;100.00
32324;BME280;25666;44.350;9.222;2022-07-04T00:34:05;101558.19;;;23.63;100.00
32324;BME280;25666;44.350;9.222;2022-07-04T00:36:31;101553.94;;;23.82;100.00
32324;BME280;25666;44.350;9.222;2022-07-04T00:38:57;101554.84;;;23.72;100.00
32324;BME280;25666;44.350;9.222;2022-07-04T00:41:22;101554.50;;;23.66;100.00
32324;BME280;25666;44.350;9.222;2022-07-04T00:44:02;101559.31;;;23.73;100.00
32324;BME280;25666;44.350;9.222;2022-07-04T00:46:28;101553.34;;;23.60;100.00
32324;BME280;25666;44.350;9.222;2022-07-04T00:48:54;101553.28;;;23.67;100.00
32324;BME280;25666;44.350;9.222;2022-07-04T00:51:19;101550.00;;;23.69;100.00
32324;BME280;25666;44.350;9.222;2022-07-04T00:53:45;101554.09;;;23.68;100.00
32324;BME280;25666;44.350;9.222;2022-07-04T00:56:11;101555.66;;;23.72;100.00
32324;BME280;25666;44.350;9.222;2022-07-04T00:58:37;101549.09;;;23.79;100.00
32324;BME280;25666;44.350;9.222;2022-07-04T01:01:03;101545.34;;;23.44;100.00
32324;BME280;25666;44.350;9.222;2022-07-04T01:03:29;101553.94;;;23.34;100.00
32324;BME280;25666;44.350;9.222;2022-07-04T01:05:55;101556.03;;;23.26;100.00
32324;BME280;25666;44.350;9.222;2022-07-04T01:08:21;101549.88;;;23.35;100.00
32324;BME280;25666;44.350;9.222;2022-07-04T01:10:47;101530.00;;;23.31;100.00
32324;BME280;25666;44.350;9.222;2022-07-04T01:13:23;101529.16;;;23.38;100.00
32324;BME280;25666;44.350;9.222;2022-07-04T01:15:49;101512.94;;;23.35;100.00
32324;BME280;25666;44.350;9.222;2022-07-04T01:18:16;101509.00;;;23.22;100.00
32324;BME280;25666;44.350;9.222;2022-07-04T01:20:42;101509.94;;;23.05;100.00
32324;BME280;25666;44.350;9.222;2022-07-04T01:23:07;101504.50;;;23.24;100.00
32324;BME280;25666;44.350;9.222;2022-07-04T01:25:33;101504.28;;;23.05;100.00
32324;BME280;25666;44.350;9.222;2022-07-04T01:27:59;101506.69;;;23.03;100.00
32324;BME280;25666;44.350;9.222;2022-07-04T01:30:26;101506.28;;;23.08;100.00
32324;BME280;25666;44.350;9.222;2022-07-04T01:32:52;101500.19;;;23.06;100.00
32324;BME280;25666;44.350;9.222;2022-07-04T01:35:17;101498.63;;;23.01;100.00
32324;BME280;25666;44.350;9.222;2022-07-04T01:37:43;101495.44;;;22.92;100.00
32324;BME280;25666;44.350;9.222;2022-07-04T01:40:09;101495.91;;;23.31;100.00
32324;BME280;25666;44.350;9.222;2022-07-04T01:42:34;101485.00;;;23.30;100.00
32324;BME280;25666;44.350;9.222;2022-07-04T01:45:00;101492.69;;;23.29;100.00
32324;BME280;25666;44.350;9.222;2022-07-04T01:47:25;101491.66;;;23.06;100.00
32324;BME280;25666;44.350;9.222;2022-07-04T01:49:51;101490.19;;;22.87;100.00
32324;BME280;25666;44.350;9.222;2022-07-04T01:52:17;101486.94;;;22.92;100.00
32324;BME280;25666;44.350;9.222;2022-07-04T01:54:42;101492.03;;;23.15;100.00
32324;BME280;25666;44.350;9.222;2022-07-04T01:57:08;101496.81;;;23.21;100.00
32324;BME280;25666;44.350;9.222;2022-07-04T01:59:34;101496.22;;;23.48;100.00
32324;BME280;25666;44.350;9.222;2022-07-04T02:02:17;101500.94;;;23.65;100.00
32324;BME280;25666;44.350;9.222;2022-07-04T02:04:43;101489.00;;;23.36;100.00
32324;BME280;25666;44.350;9.222;2022-07-04T02:07:08;101491.63;;;23.13;100.00
32324;BME280;25666;44.350;9.222;2022-07-04T02:09:34;101501.03;;;23.03;100.00
32324;BME280;25666;44.350;9.222;2022-07-04T02:12:00;101498.06;;;23.20;100.00
32324;BME280;25666;44.350;9.222;2022-07-04T02:14:43;101502.00;;;23.33;100.00
32324;BME280;25666;44.350;9.222;2022-07-04T02:17:11;101504.94;;;23.23;100.00
32324;BME280;25666;44.350;9.222;2022-07-04T02:19:36;101507.22;;;23.42;100.00
32324;BME280;25666;44.350;9.222;2022-07-04T02:22:03;101506.47;;;23.31;100.00
32324;BME280;25666;44.350;9.222;2022-07-04T02:24:28;101522.56;;;22.97;100.00
32324;BME280;25666;44.350;9.222;2022-07-04T02:26:54;101518.25;;;23.33;100.00
32324;BME280;25666;44.350;9.222;2022-07-04T02:29:19;101528.47;;;23.23;100.00
32324;BME280;25666;44.350;9.222;2022-07-04T02:31:45;101535.16;;;22.99;100.00
32324;BME280;25666;44.350;9.222;2022-07-04T02:34:11;101536.72;;;23.04;100.00
32324;BME280;25666;44.350;9.222;2022-07-04T02:36:37;101544.88;;;22.98;100.00
32324;BME280;25666;44.350;9.222;2022-07-04T02:39:04;101550.56;;;22.98;100.00
32324;BME280;25666;44.350;9.222;2022-07-04T02:41:33;101555.38;;;23.05;100.00
32324;BME280;25666;44.350;9.222;2022-07-04T02:43:58;101561.47;;;23.03;100.00
32324;BME280;25666;44.350;9.222;2022-07-04T02:46:24;101560.63;;;23.06;100.00
32324;BME280;25666;44.350;9.222;2022-07-04T02:48:50;101569.19;;;23.03;100.00
32324;BME280;25666;44.350;9.222;2022-07-04T02:51:16;101580.97;;;22.98;100.00
32324;BME280;25666;44.350;9.222;2022-07-04T02:53:42;101583.03;;;22.90;100.00
32324;BME280;25666;44.350;9.222;2022-07-04T02:56:07;101579.41;;;22.89;100.00
32324;BME280;25666;44.350;9.222;2022-07-04T02:58:33;101585.63;;;22.67;100.00
32324;BME280;25666;44.350;9.222;2022-07-04T03:00:59;101585.22;;;22.61;100.00
32324;BME280;25666;44.350;9.222;2022-07-04T03:03:28;101589.22;;;22.74;100.00
32324;BME280;25666;44.350;9.222;2022-07-04T03:05:54;101595.75;;;22.61;100.00
32324;BME280;25666;44.350;9.222;2022-07-04T03:08:19;101595.78;;;22.50;100.00
32324;BME280;25666;44.350;9.222;2022-07-04T03:10:45;101601.09;;;22.34;100.00
32324;BME280;25666;44.350;9.222;2022-07-04T03:13:10;101599.09;;;22.34;100.00
32324;BME280;25666;44.350;9.222;2022-07-04T03:15:36;101609.97;;;22.47;100.00
32324;BME280;25666;44.350;9.222;2022-07-04T03:18:01;101614.34;;;22.79;100.00
32324;BME280;25666;44.350;9.222;2022-07-04T03:20:27;101611.59;;;22.48;100.00
32324;BME280;25666;44.350;9.222;2022-07-04T03:22:52;101609.97;;;22.47;100.00
32324;BME280;25666;44.350;9.222;2022-07-04T03:25:20;101605.19;;;22.33;100.00
32324;BME280;25666;44.350;9.222;2022-07-04T03:27:46;101605.19;;;22.33;100.00
32324;BME280;25666;44.350;9.222;2022-07-04T03:30:11;101604.00;;;22.16;100.00
32324;BME280;25666;44.350;9.222;2022-07-04T03:32:37;101600.78;;;22.00;100.00
32324;BME280;25666;44.350;9.222;2022-07-04T03:35:03;101612.16;;;21.90;100.00
32324;BME280;25666;44.350;9.222;2022-07-04T03:37:29;101611.75;;;22.02;100.00
32324;BME280;25666;44.350;9.222;2022-07-04T03:39:55;101614.59;;;21.95;100.00
32324;BME280;25666;44.350;9.222;2022-07-04T03:42:20;101601.59;;;22.11;100.00
32324;BME280;25666;44.350;9.222;2022-07-04T03:44:46;101595.41;;;22.41;100.00
32324;BME280;25666;44.350;9.222;2022-07-04T03:47:11;101584.81;;;22.56;100.00
32324;BME280;25666;44.350;9.222;2022-07-04T03:49:37;101583.53;;;22.74;100.00
32324;BME280;25666;44.350;9.222;2022-07-04T03:52:02;101582.31;;;22.79;100.00
32324;BME280;25666;44.350;9.222;2022-07-04T03:54:28;101585.59;;;22.74;100.00
32324;BME280;25666;44.350;9.222;2022-07-04T03:56:55;101592.78;;;22.96;100.00
32324;BME280;25666;44.350;9.222;2022-07-04T03:59:20;101581.09;;;22.83;100.00
32324;BME280;25666;44.350;9.222;2022-07-04T04:01:46;101597.03;;;22.42;100.00
32324;BME280;25666;44.350;9.222;2022-07-04T04:04:11;101587.75;;;22.34;100.00
32324;BME280;25666;44.350;9.222;2022-07-04T04:06:55;101599.06;;;22.41;100.00
32324;BME280;25666;44.350;9.222;2022-07-04T04:09:21;101582.88;;;22.31;100.00
32324;BME280;25666;44.350;9.222;2022-07-04T04:11:53;101583.22;;;22.51;100.00
32324;BME280;25666;44.350;9.222;2022-07-04T04:14:19;101585.25;;;22.54;100.00
32324;BME280;25666;44.350;9.222;2022-07-04T04:16:44;101597.06;;;22.31;100.00
32324;BME280;25666;44.350;9.222;2022-07-04T04:19:10;101597.81;;;22.50;100.00
32324;BME280;25666;44.350;9.222;2022-07-04T04:21:36;101594.13;;;22.70;100.00
32324;BME280;25666;44.350;9.222;2022-07-04T04:24:02;101586.31;;;22.85;100.00
32324;BME280;25666;44.350;9.222;2022-07-04T04:26:29;101584.69;;;22.87;100.00
32324;BME280;25666;44.350;9.222;2022-07-04T04:28:55;101569.81;;;22.59;100.00
32324;BME280;25666;44.350;9.222;2022-07-04T04:31:20;101565.00;;;22.49;100.00
32324;BME280;25666;44.350;9.222;2022-07-04T04:33:46;101571.88;;;22.48;100.00
32324;BME280;25666;44.350;9.222;2022-07-04T04:36:11;101574.59;;;22.79;100.00
32324;BME280;25666;44.350;9.222;2022-07-04T04:38:37;101580.78;;;22.46;100.00
32324;BME280;25666;44.350;9.222;2022-07-04T04:41:03;101584.06;;;22.45;100.00
32324;BME280;25666;44.350;9.222;2022-07-04T04:43:28;101576.38;;;22.45;100.00
32324;BME280;25666;44.350;9.222;2022-07-04T04:45:54;101579.78;;;22.95;100.00
32324;BME280;25666;44.350;9.222;2022-07-04T04:48:20;101578.16;;;22.98;100.00
32324;BME280;25666;44.350;9.222;2022-07-04T04:50:45;101586.22;;;23.03;100.00
32324;BME280;25666;44.350;9.222;2022-07-04T04:53:11;101581.72;;;23.09;100.00
32324;BME280;25666;44.350;9.222;2022-07-04T04:55:38;101578.09;;;23.08;100.00
32324;BME280;25666;44.350;9.222;2022-07-04T04:58:03;101574.22;;;23.36;100.00
32324;BME280;25666;44.350;9.222;2022-07-04T05:00:29;101564.53;;;23.30;100.00
32324;BME280;25666;44.350;9.222;2022-07-04T05:02:54;101567.72;;;23.39;100.00
32324;BME280;25666;44.350;9.222;2022-07-04T05:05:20;101569.91;;;23.69;100.00
32324;BME280;25666;44.350;9.222;2022-07-04T05:07:45;101576.38;;;24.14;100.00
32324;BME280;25666;44.350;9.222;2022-07-04T05:10:11;101565.44;;;24.46;100.00
32324;BME280;25666;44.350;9.222;2022-07-04T05:12:37;101560.00;;;24.59;100.00
32324;BME280;25666;44.350;9.222;2022-07-04T05:15:03;101554.19;;;24.96;100.00
32324;BME280;25666;44.350;9.222;2022-07-04T05:17:28;101552.75;;;25.11;100.00
32324;BME280;25666;44.350;9.222;2022-07-04T05:19:54;101548.03;;;25.51;100.00
32324;BME280;25666;44.350;9.222;2022-07-04T05:22:19;101542.09;;;25.65;100.00
32324;BME280;25666;44.350;9.222;2022-07-04T05:24:45;101539.97;;;25.69;100.00
32324;BME280;25666;44.350;9.222;2022-07-04T05:27:10;101532.69;;;25.88;100.00
32324;BME280;25666;44.350;9.222;2022-07-04T05:29:36;101544.31;;;25.77;100.00
32324;BME280;25666;44.350;9.222;2022-07-04T05:32:04;101540.78;;;26.52;100.00
32324;BME280;25666;44.350;9.222;2022-07-04T05:34:29;101541.75;;;26.26;100.00
32324;BME280;25666;44.350;9.222;2022-07-04T05:36:55;101544.13;;;25.65;100.00
32324;BME280;25666;44.350;9.222;2022-07-04T05:39:20;101546.28;;;25.57;100.00
32324;BME280;25666;44.350;9.222;2022-07-04T05:41:46;101546.59;;;25.63;100.00
32324;BME280;25666;44.350;9.222;2022-07-04T05:44:12;101544.31;;;25.54;100.00
32324;BME280;25666;44.350;9.222;2022-07-04T05:46:37;101560.03;;;25.39;100.00
32324;BME280;25666;44.350;9.222;2022-07-04T05:49:03;101552.59;;;25.45;100.00
32324;BME280;25666;44.350;9.222;2022-07-04T05:51:28;101554.91;;;25.53;100.00
32324;BME280;25666;44.350;9.222;2022-07-04T05:53:54;101540.72;;;25.50;100.00
32324;BME280;25666;44.350;9.222;2022-07-04T05:56:19;101555.44;;;25.45;100.00
32324;BME280;25666;44.350;9.222;2022-07-04T05:58:45;101551.19;;;25.56;100.00
32324;BME280;25666;44.350;9.222;2022-07-04T06:01:11;101552.25;;;26.09;100.00
32324;BME280;25666;44.350;9.222;2022-07-04T06:03:36;101546.09;;;26.34;100.00
32324;BME280;25666;44.350;9.222;2022-07-04T06:06:03;101548.41;;;26.39;100.00
32324;BME280;25666;44.350;9.222;2022-07-04T06:08:29;101552.28;;;26.29;100.00
32324;BME280;25666;44.350;9.222;2022-07-04T06:10:55;101556.81;;;26.66;100.00
32324;BME280;25666;44.350;9.222;2022-07-04T06:13:20;101563.91;;;26.57;100.00
32324;BME280;25666;44.350;9.222;2022-07-04T06:15:46;101561.00;;;26.81;100.00
32324;BME280;25666;44.350;9.222;2022-07-04T06:18:12;101559.28;;;28.41;100.00
32324;BME280;25666;44.350;9.222;2022-07-04T06:20:38;101566.34;;;28.53;100.00
32324;BME280;25666;44.350;9.222;2022-07-04T06:23:06;101562.13;;;28.00;100.00
32324;BME280;25666;44.350;9.222;2022-07-04T06:25:32;101569.78;;;28.03;100.00
32324;BME280;25666;44.350;9.222;2022-07-04T06:27:58;101563.09;;;28.51;100.00
32324;BME280;25666;44.350;9.222;2022-07-04T06:30:24;101568.97;;;28.47;100.00
32324;BME280;25666;44.350;9.222;2022-07-04T06:32:51;101569.41;;;28.17;100.00
32324;BME280;25666;44.350;9.222;2022-07-04T06:35:26;101565.78;;;28.29;100.00
32324;BME280;25666;44.350;9.222;2022-07-04T06:38:14;101575.34;;;28.80;100.00
32324;BME280;25666;44.350;9.222;2022-07-04T06:40:41;101568.53;;;28.61;100.00
32324;BME280;25666;44.350;9.222;2022-07-04T06:43:07;101581.69;;;29.00;100.00
32324;BME280;25666;44.350;9.222;2022-07-04T06:45:33;101569.97;;;28.95;100.00
32324;BME280;25666;44.350;9.222;2022-07-04T06:48:00;101578.56;;;28.95;100.00
32324;BME280;25666;44.350;9.222;2022-07-04T06:50:25;101572.34;;;30.19;100.00
32324;BME280;25666;44.350;9.222;2022-07-04T06:52:51;101570.81;;;30.27;100.00
32324;BME280;25666;44.350;9.222;2022-07-04T06:55:36;101553.59;;;29.33;100.00
32324;BME280;25666;44.350;9.222;2022-07-04T06:58:02;101560.81;;;28.87;100.00
32324;BME280;25666;44.350;9.222;2022-07-04T07:00:29;101551.84;;;28.31;100.00
32324;BME280;25666;44.350;9.222;2022-07-04T07:02:59;101559.47;;;28.22;100.00
32324;BME280;25666;44.350;9.222;2022-07-04T07:05:26;101560.69;;;27.76;100.00
32324;BME280;25666;44.350;9.222;2022-07-04T07:07:52;101573.66;;;27.96;100.00
32324;BME280;25666;44.350;9.222;2022-07-04T07:10:17;101579.41;;;27.80;100.00
32324;BME280;25666;44.350;9.222;2022-07-04T07:12:43;101600.78;;;27.43;100.00
32324;BME280;25666;44.350;9.222;2022-07-04T07:15:09;101605.31;;;27.73;100.00
32324;BME280;25666;44.350;9.222;2022-07-04T07:17:34;101622.13;;;27.87;100.00
32324;BME280;25666;44.350;9.222;2022-07-04T07:20:00;101632.78;;;27.71;100.00
32324;BME280;25666;44.350;9.222;2022-07-04T07:22:26;101622.41;;;27.93;100.00
32324;BME280;25666;44.350;9.222;2022-07-04T07:24:52;101621.25;;;28.06;100.00
32324;BME280;25666;44.350;9.222;2022-07-04T07:27:17;101615.94;;;28.79;100.00
32324;BME280;25666;44.350;9.222;2022-07-04T07:29:43;101613.47;;;29.18;100.00
32324;BME280;25666;44.350;9.222;2022-07-04T07:32:08;101616.25;;;33.04;100.00
32324;BME280;25666;44.350;9.222;2022-07-04T07:34:34;101621.69;;;33.86;100.00
32324;BME280;25666;44.350;9.222;2022-07-04T07:37:00;101624.53;;;34.72;95.25
32324;BME280;25666;44.350;9.222;2022-07-04T07:39:26;101620.19;;;34.38;96.32
32324;BME280;25666;44.350;9.222;2022-07-04T07:41:52;101619.19;;;32.77;100.00
32324;BME280;25666;44.350;9.222;2022-07-04T07:44:17;101591.81;;;32.18;100.00
32324;BME280;25666;44.350;9.222;2022-07-04T07:46:43;101586.59;;;31.18;100.00
32324;BME280;25666;44.350;9.222;2022-07-04T07:49:08;101579.31;;;30.74;100.00
32324;BME280;25666;44.350;9.222;2022-07-04T07:51:34;101565.09;;;30.49;100.00
32324;BME280;25666;44.350;9.222;2022-07-04T07:54:00;101545.00;;;29.93;100.00
32324;BME280;25666;44.350;9.222;2022-07-04T07:56:26;101531.31;;;29.62;100.00
32324;BME280;25666;44.350;9.222;2022-07-04T07:58:52;101524.38;;;29.72;100.00
32324;BME280;25666;44.350;9.222;2022-07-04T08:01:18;101518.31;;;29.58;100.00
32324;BME280;25666;44.350;9.222;2022-07-04T08:03:43;101497.84;;;29.47;100.00
32324;BME280;25666;44.350;9.222;2022-07-04T08:06:27;101481.59;;;29.06;100.00
32324;BME280;25666;44.350;9.222;2022-07-04T08:08:53;101473.09;;;28.90;100.00
32324;BME280;25666;44.350;9.222;2022-07-04T08:11:19;101465.75;;;29.01;100.00
32324;BME280;25666;44.350;9.222;2022-07-04T08:13:46;101467.81;;;29.60;100.00
32324;BME280;25666;44.350;9.222;2022-07-04T08:16:12;101479.38;;;30.47;100.00
32324;BME280;25666;44.350;9.222;2022-07-04T08:18:37;101489.00;;;30.32;100.00
32324;BME280;25666;44.350;9.222;2022-07-04T08:21:03;101478.44;;;30.28;100.00
32324;BME280;25666;44.350;9.222;2022-07-04T08:23:31;101472.81;;;29.82;100.00
32324;BME280;25666;44.350;9.222;2022-07-04T08:25:58;101482.13;;;30.29;100.00
32324;BME280;25666;44.350;9.222;2022-07-04T08:28:25;101508.16;;;30.35;100.00
32324;BME280;25666;44.350;9.222;2022-07-04T08:30:51;101517.72;;;30.32;100.00
32324;BME280;25666;44.350;9.222;2022-07-04T08:33:17;101520.09;;;30.33;100.00
32324;BME280;25666;44.350;9.222;2022-07-04T08:35:42;101512.78;;;30.54;100.00
32324;BME280;25666;44.350;9.222;2022-07-04T08:38:08;101509.69;;;30.48;100.00
32324;BME280;25666;44.350;9.222;2022-07-04T08:40:34;101525.59;;;30.62;100.00
32324;BME280;25666;44.350;9.222;2022-07-04T08:43:01;101521.00;;;30.43;100.00
32324;BME280;25666;44.350;9.222;2022-07-04T08:45:29;101515.88;;;30.68;100.00
32324;BME280;25666;44.350;9.222;2022-07-04T08:48:03;101524.00;;;30.39;100.00
32324;BME280;25666;44.350;9.222;2022-07-04T08:50:38;101540.03;;;30.49;100.00
32324;BME280;25666;44.350;9.222;2022-07-04T08:53:18;101547.00;;;30.39;100.00
32324;BME280;25666;44.350;9.222;2022-07-04T08:55:45;101560.00;;;30.31;100.00
32324;BME280;25666;44.350;9.222;2022-07-04T08:58:29;101571.50;;;30.53;100.00
32324;BME280;25666;44.350;9.222;2022-07-04T09:00:56;101594.63;;;30.49;100.00
32324;BME280;25666;44.350;9.222;2022-07-04T09:03:23;101600.50;;;30.46;100.00
32324;BME280;25666;44.350;9.222;2022-07-04T09:05:49;101600.09;;;30.35;100.00
32324;BME280;25666;44.350;9.222;2022-07-04T09:08:14;101601.19;;;30.15;100.00
32324;BME280;25666;44.350;9.222;2022-07-04T09:10:40;101611.03;;;30.27;100.00
32324;BME280;25666;44.350;9.222;2022-07-04T09:13:07;101609.88;;;30.24;100.00
32324;BME280;25666;44.350;9.222;2022-07-04T09:15:33;101614.25;;;30.29;100.00
32324;BME280;25666;44.350;9.222;2022-07-04T09:18:00;101621.13;;;29.97;100.00
32324;BME280;25666;44.350;9.222;2022-07-04T09:20:27;101621.78;;;30.01;100.00
32324;BME280;25666;44.350;9.222;2022-07-04T09:22:54;101619.28;;;30.03;100.00
32324;BME280;25666;44.350;9.222;2022-07-04T09:25:21;101622.91;;;29.82;100.00
32324;BME280;25666;44.350;9.222;2022-07-04T09:27:55;101627.13;;;29.90;100.00
32324;BME280;25666;44.350;9.222;2022-07-04T09:30:24;101639.53;;;29.62;100.00
32324;BME280;25666;44.350;9.222;2022-07-04T09:32:52;101631.13;;;29.80;100.00
32324;BME280;25666;44.350;9.222;2022-07-04T09:35:24;101636.53;;;29.91;100.00
32324;BME280;25666;44.350;9.222;2022-07-04T09:37:54;101638.09;;;30.04;100.00
32324;BME280;25666;44.350;9.222;2022-07-04T09:40:25;101633.44;;;29.98;100.00
32324;BME280;25666;44.350;9.222;2022-07-04T09:42:52;101636.16;;;30.01;100.00
32324;BME280;25666;44.350;9.222;2022-07-04T09:45:18;101639.72;;;29.93;100.00
32324;BME280;25666;44.350;9.222;2022-07-04T09:47:47;101639.03;;;29.89;100.00
32324;BME280;25666;44.350;9.222;2022-07-04T09:50:18;101630.97;;;30.09;100.00
32324;BME280;25666;44.350;9.222;2022-07-04T09:53:01;101626.63;;;29.92;100.00
32324;BME280;25666;44.350;9.222;2022-07-04T09:55:35;101633.59;;;30.16;100.00
32324;BME280;25666;44.350;9.222;2022-07-04T09:58:08;101626.84;;;30.10;100.00
32324;BME280;25666;44.350;9.222;2022-07-04T10:00:36;101634.97;;;30.11;100.00
32324;BME280;25666;44.350;9.222;2022-07-04T10:03:21;101624.44;;;29.96;100.00
32324;BME280;25666;44.350;9.222;2022-07-04T10:06:01;101623.97;;;30.10;100.00
32324;BME280;25666;44.350;9.222;2022-07-04T10:08:26;101616.75;;;29.93;100.00
32324;BME280;25666;44.350;9.222;2022-07-04T10:10:56;101618.91;;;30.01;100.00
32324;BME280;25666;44.350;9.222;2022-07-04T10:13:22;101617.47;;;29.97;100.00
32324;BME280;25666;44.350;9.222;2022-07-04T10:15:48;101620.84;;;30.04;100.00
32324;BME280;25666;44.350;9.222;2022-07-04T10:18:33;101616.88;;;29.89;100.00
32324;BME280;25666;44.350;9.222;2022-07-04T10:21:00;101610.31;;;30.01;100.00
32324;BME280;25666;44.350;9.222;2022-07-04T10:23:26;101603.78;;;30.01;100.00
32324;BME280;25666;44.350;9.222;2022-07-04T10:25:57;101607.81;;;29.91;100.00
32324;BME280;25666;44.350;9.222;2022-07-04T10:28:23;101605.28;;;29.93;100.00
32324;BME280;25666;44.350;9.222;2022-07-04T10:30:54;101608.16;;;29.93;100.00
32324;BME280;25666;44.350;9.222;2022-07-04T10:33:28;101597.72;;;29.86;100.00
32324;BME280;25666;44.350;9.222;2022-07-04T10:35:59;101595.81;;;30.05;100.00
32324;BME280;25666;44.350;9.222;2022-07-04T10:38:33;101598.28;;;29.94;100.00
32324;BME280;25666;44.350;9.222;2022-07-04T10:41:07;101591.00;;;30.02;100.00
32324;BME280;25666;44.350;9.222;2022-07-04T10:51:17;101599.00;;;30.19;100.00
32324;BME280;25666;44.350;9.222;2022-07-04T10:54:04;101593.09;;;30.23;100.00
32324;BME280;25666;44.350;9.222;2022-07-04T10:56:35;101580.28;;;30.15;100.00
32324;BME280;25666;44.350;9.222;2022-07-04T10:59:07;101583.31;;;29.99;100.00
32324;BME280;25666;44.350;9.222;2022-07-04T11:01:33;101584.03;;;30.24;100.00
32324;BME280;25666;44.350;9.222;2022-07-04T11:03:59;101576.91;;;30.29;100.00
32324;BME280;25666;44.350;9.222;2022-07-04T11:09:20;101574.84;;;30.51;100.00
32324;BME280;25666;44.350;9.222;2022-07-04T11:12:04;101568.78;;;30.49;100.00
32324;BME280;25666;44.350;9.222;2022-07-04T11:16:57;101559.00;;;30.68;100.00
32324;BME280;25666;44.350;9.222;2022-07-04T11:19:23;101553.28;;;30.47;100.00
32324;BME280;25666;44.350;9.222;2022-07-04T11:21:48;101553.72;;;30.23;100.00
32324;BME280;25666;44.350;9.222;2022-07-04T11:24:14;101552.59;;;29.87;100.00
32324;BME280;25666;44.350;9.222;2022-07-04T11:26:40;101547.44;;;30.16;100.00
32324;BME280;25666;44.350;9.222;2022-07-04T11:29:05;101536.75;;;30.38;100.00
32324;BME280;25666;44.350;9.222;2022-07-04T11:31:38;101534.56;;;30.42;100.00
32324;BME280;25666;44.350;9.222;2022-07-04T11:34:04;101540.97;;;30.46;100.00
32324;BME280;25666;44.350;9.222;2022-07-04T11:36:30;101537.94;;;30.28;100.00
32324;BME280;25666;44.350;9.222;2022-07-04T11:38:58;101539.06;;;29.74;100.00
32324;BME280;25666;44.350;9.222;2022-07-04T11:41:29;101523.84;;;29.99;100.00
32324;BME280;25666;44.350;9.222;2022-07-04T11:44:16;101513.53;;;29.89;100.00
32324;BME280;25666;44.350;9.222;2022-07-04T11:49:33;101521.03;;;30.08;100.00
32324;BME280;25666;44.350;9.222;2022-07-04T11:51:59;101508.69;;;29.99;100.00
32324;BME280;25666;44.350;9.222;2022-07-04T11:54:25;101517.47;;;29.83;100.00
32324;BME280;25666;44.350;9.222;2022-07-04T11:56:50;101509.81;;;30.01;100.00
32324;BME280;25666;44.350;9.222;2022-07-04T11:59:16;101501.88;;;29.71;100.00
32324;BME280;25666;44.350;9.222;2022-07-04T12:01:43;101498.13;;;29.61;100.00
32324;BME280;25666;44.350;9.222;2022-07-04T12:06:38;101478.59;;;30.03;100.00
32324;BME280;25666;44.350;9.222;2022-07-04T12:09:04;101480.41;;;30.10;100.00
32324;BME280;25666;44.350;9.222;2022-07-04T12:11:56;101483.06;;;30.26;100.00
32324;BME280;25666;44.350;9.222;2022-07-04T12:14:23;101480.09;;;30.17;100.00
32324;BME280;25666;44.350;9.222;2022-07-04T12:16:49;101482.84;;;29.99;100.00
32324;BME280;25666;44.350;9.222;2022-07-04T12:19:14;101471.84;;;29.97;100.00
32324;BME280;25666;44.350;9.222;2022-07-04T12:21:42;101486.97;;;29.63;100.00
32324;BME280;25666;44.350;9.222;2022-07-04T12:24:08;101474.16;;;29.90;100.00
32324;BME280;25666;44.350;9.222;2022-07-04T12:26:33;101470.34;;;30.14;100.00
32324;BME280;25666;44.350;9.222;2022-07-04T12:29:00;101469.81;;;30.28;100.00
32324;BME280;25666;44.350;9.222;2022-07-04T12:31:42;101465.50;;;30.02;100.00
32324;BME280;25666;44.350;9.222;2022-07-04T12:34:15;101465.34;;;29.84;100.00
32324;BME280;25666;44.350;9.222;2022-07-04T12:36:52;101460.56;;;30.03;100.00
32324;BME280;25666;44.350;9.222;2022-07-04T12:39:31;101461.59;;;30.18;100.00
32324;BME280;25666;44.350;9.222;2022-07-04T12:42:17;101462.94;;;30.04;100.00
32324;BME280;25666;44.350;9.222;2022-07-04T12:44:44;101467.63;;;30.11;100.00
32324;BME280;25666;44.350;9.222;2022-07-04T12:47:11;101473.72;;;30.13;100.00
32324;BME280;25666;44.350;9.222;2022-07-04T12:49:41;101475.69;;;30.25;100.00
32324;BME280;25666;44.350;9.222;2022-07-04T12:52:15;101471.97;;;30.15;100.00
32324;BME280;25666;44.350;9.222;2022-07-04T12:54:42;101477.63;;;30.28;100.00
32324;BME280;25666;44.350;9.222;2022-07-04T12:57:15;101472.50;;;30.01;100.00
32324;BME280;25666;44.350;9.222;2022-07-04T12:59:42;101479.00;;;29.80;100.00